Etusivu
METAR-TAF:

METAR-TAF

Lentoasemat :

Cartersville Airport

Cartersville, Georgia, Yhdysvallat

Leveyspiiri: 34-07-42N, Pituuspiiri: 084-50-50W, korkeus merenpinnasta: 233 m

Tämänhetkinen sää

Tämä raportti tehtiin 1 tunti ja 4 minuuttia sitten, kello 08.53 UTC
tyyntä
Lämpötila 1°C
Kosteus 86%
Ilmanpaine 1025 hPa
Näkyvyys: 8.0 km
selkeää
utua

METAR: KVPC 110853Z AUTO 00000KT 5SM BR CLR 01/M01 A3027 RMK AO2 SLP249 T00061006 53010

Aika: 04:57 (09:57 UTC)


TAF: puuttuu

Säähavainnot ja -ennusteet yli 4000 lentoasemalta (METAR- ja TAF-raportit).

Käytössä olevat sääasemat on merkitty karttaan keltaisilla ja punaisilla pisteillä.

Aseta hiiri pisteen päälle nähdäksesi sääaseman nimen.

Klikkaa sitten nähdäksesi säähavainnot ja -ennusteet.

Kartan vaihtaminen: klikkaa mustalla rastilla varustettuja vihreitä pisteitä, niin voit zoomata sisään; viivalla varustettua vihreää pistettä, niin voit zoomata ulos tai vihreitä nuolia, niin pääset viereisille kartoille.


METAR-TAF: